Terminal Aerodrome Forecast
Issued by NWS Charleston, WV

Current Version | Previous Version | Graphics & Text | Print | Product List | Glossary On
Versions: 1 2 3 4 5 6 7 8 9 10 11 12 13 14 15 16 17 18 19 20 21 22 23
000
FTUS41 KRLX 181259 AAA
TAFPKB
TAF AMD
KPKB 181259Z 1813/1912 00000KT 1/4SM FG BKN001
     FM181330 00000KT 3SM BR SCT001
     FM181400 21006KT P6SM SKC
     FM190800 00000KT 1SM BR SKC
     FM191000 00000KT 1/4SM FG BKN001=

USA.gov is the U.S. government's official web portal to all federal, state and local government web resources and services.